• Join FlightAware (Why Join?)
  • Login
  • US Flag 
05:44PM EDT


 

Airport Tracker/Info


-or-


 

Live Flight TrackerFlight Track Log ✈ UPS1121 ✈ 29-Apr-2013 ✈ KBDL - KPHL

Flight Track Log - Related Links

Times and Time Zones

All times are in EDT time to prevent confusion due to time zone crossing. See the UPS1121 flight status page for this flight to view local times or setup timezone preferences in your user account.

Time Position Orientation Groundspeed Altitude Reporting Facility
EDT Latitude Longitude Course Direction KTS MPH feet Rate Location/Type
09:59PM 41.9458 -72.7081 279° West 157 181 1,400  Level Boston Center
09:59PM 41.9478 -72.7247 279° West 160 184 1,700 1,920 Climbing Boston Center
10:00PM 41.9039 -72.7303 185° South 207 238 4,200 2,400 Climbing Boston Center
10:06PM 41.4900 -72.3580 185° South 395 455 18,200 2,460 Climbing FlightAware
10:06PM 41.4130 -72.3890 197° South 395 455 19,900 1,260 Climbing FlightAware
10:07PM 41.3560 -72.4340 211° Southwest 395 455 20,000 60 Climbing FlightAware
10:08PM 41.2770 -72.4960 211° Southwest 393 452 20,000  Level FlightAware
10:09PM 41.2100 -72.5480 210° Southwest 393 452 20,000  Level FlightAware
10:09PM 41.1300 -72.6110 211° Southwest 396 456 20,000  Level FlightAware
10:10PM 41.0690 -72.6580 210° Southwest 396 456 20,000  Level FlightAware
10:11PM 40.9920 -72.7180 210° Southwest 396 456 20,000  Level FlightAware
10:12PM 40.9300 -72.7660 210° Southwest 387 445 20,000  Level FlightAware
10:12PM 40.9129 -72.7786 209° Southwest 386 444 20,000  Level FlightAware ADS-B
10:12PM 40.8605 -72.8187 210° Southwest 385 443 20,000  Level FlightAware ADS-B
10:13PM 40.8133 -72.8547 210° Southwest 385 443 20,000  Level FlightAware ADS-B
10:13PM 40.7622 -72.8938 210° Southwest 385 443 20,000  Level FlightAware ADS-B
10:14PM 40.7130 -72.9315 210° Southwest 384 442 20,000  Level FlightAware ADS-B
10:14PM 40.6655 -72.9678 210° Southwest 383 441 20,000  Level FlightAware ADS-B
10:15PM 40.6193 -73.0031 210° Southwest 382 440 20,000  Level FlightAware ADS-B
10:15PM 40.5695 -73.0410 210° Southwest 383 441 20,000  Level FlightAware ADS-B
10:16PM 40.5211 -73.0777 210° Southwest 383 441 20,000  Level FlightAware ADS-B
10:16PM 40.4720 -73.1150 210° Southwest 383 441 20,000  Level FlightAware ADS-B
10:17PM 40.4233 -73.1519 210° Southwest 384 442 20,000  Level FlightAware ADS-B
10:18PM 40.3708 -73.1917 210° Southwest 384 442 20,000  Level FlightAware ADS-B
10:18PM 40.3230 -73.2277 210° Southwest 384 442 20,000  Level FlightAware ADS-B
10:19PM 40.2754 -73.2634 210° Southwest 386 444 20,000  Level FlightAware ADS-B
10:19PM 40.2280 -73.2990 210° Southwest 387 445 20,000  Level FlightAware ADS-B
10:20PM 40.1796 -73.3355 210° Southwest 389 448 20,000  Level FlightAware ADS-B
10:20PM 40.1328 -73.3706 210° Southwest 390 449 20,000  Level FlightAware ADS-B
10:21PM 40.0844 -73.4067 210° Southwest 390 449 20,000  Level FlightAware ADS-B
10:21PM 40.0373 -73.4420 210° Southwest 388 447 20,000  Level FlightAware ADS-B
10:22PM 39.9890 -73.4780 210° Southwest 388 447 20,000  Level FlightAware ADS-B
10:22PM 39.9413 -73.5135 210° Southwest 388 447 20,000  Level FlightAware ADS-B
10:22PM 39.9250 -73.5264 211° Southwest 388 447 20,000  Level FlightAware ADS-B
10:23PM 39.8999 -73.5519 218° Southwest 388 447 20,000  Level FlightAware ADS-B
10:23PM 39.8853 -73.5705 224° Southwest 388 447 20,000  Level FlightAware ADS-B
10:23PM 39.8498 -73.6262 230° Southwest 389 448 20,000  Level FlightAware ADS-B
10:24PM 39.8134 -73.6839 231° Southwest 388 447 20,000  Level FlightAware ADS-B
10:24PM 39.7780 -73.7402 231° Southwest 389 448 20,000  Level FlightAware ADS-B
10:25PM 39.7422 -73.7967 231° Southwest 389 448 20,000 -120 Level FlightAware ADS-B
10:25PM 39.7077 -73.8511 231° Southwest 376 433 19,900 -1,020 Descending FlightAware ADS-B
10:26PM 39.6743 -73.9034 230° Southwest 369 425 19,000 -1,980 Descending FlightAware ADS-B
10:26PM 39.6416 -73.9548 230° Southwest 369 425 17,900 -2,460 Descending FlightAware ADS-B
10:27PM 39.6072 -74.0086 230° Southwest 373 429 16,500 -2,460 Descending FlightAware ADS-B
10:27PM 39.5744 -74.0599 230° Southwest 364 419 15,400 -2,160 Descending FlightAware ADS-B
10:28PM 39.5460 -74.1044 230° Southwest 361 415 14,500 -2,040 Descending FlightAware ADS-B
10:28PM 39.5355 -74.1267 239° Southwest 358 412 14,100 -1,920 Descending FlightAware ADS-B
10:28PM 39.5334 -74.1325 245° Southwest 356 410 14,000 -1,740 Descending FlightAware ADS-B
10:28PM 39.5310 -74.1404 249° West 357 411 13,900 -720 Descending FlightAware ADS-B
10:28PM 39.5261 -74.1682 257° West 356 410 13,800 -300 Descending FlightAware ADS-B
10:29PM 39.5253 -74.1860 267° West 356 410 13,800  Level FlightAware ADS-B
10:29PM 39.5256 -74.2350 270° West 358 412 13,800  Level FlightAware ADS-B
10:30PM 39.5271 -74.3011 272° West 360 414 13,800 -720 Level FlightAware ADS-B
10:30PM 39.5284 -74.3676 271° West 349 402 13,100 -1,560 Descending FlightAware ADS-B
10:31PM 39.5297 -74.4378 271° West 341 392 12,100 -1,860 Descending FlightAware ADS-B
10:31PM 39.5312 -74.5390 271° West 335 386 10,500 -1,620 Descending FlightAware ADS-B
10:32PM 39.5320 -74.5936 271° West 321 369 10,000 -840 Descending FlightAware ADS-B
10:32PM 39.5325 -74.6229 271° West 308 354 9,900 -420 Descending FlightAware ADS-B
10:32PM 39.5330 -74.6498 271° West 297 342 9,800 -600 Descending FlightAware ADS-B
10:33PM 39.5334 -74.6767 271° West 290 334 9,600 -780 Descending FlightAware ADS-B
10:33PM 39.5338 -74.7030 271° West 282 325 9,400 -1,440 Descending FlightAware ADS-B
10:33PM 39.5343 -74.7279 271° West 277 319 8,900 -1,200 Descending FlightAware ADS-B
10:33PM 39.5346 -74.7530 271° West 278 320 8,800 -240 Descending FlightAware ADS-B
10:34PM 39.5349 -74.7790 271° West 278 320 8,800  Level FlightAware ADS-B
10:34PM 39.5352 -74.8054 271° West 279 321 8,800  Level FlightAware ADS-B
10:34PM 39.5356 -74.8308 271° West 279 321 8,800  Level FlightAware ADS-B
10:34PM 39.5360 -74.8576 271° West 279 321 8,800  Level FlightAware ADS-B
10:35PM 39.5365 -74.8831 271° West 280 322 8,800  Level FlightAware ADS-B
10:35PM 39.5370 -74.9116 271° West 278 320 8,800  Level FlightAware ADS-B
10:35PM 39.5375 -74.9379 271° West 276 318 8,800 -360 Level FlightAware ADS-B
10:36PM 39.5385 -74.9684 272° West 273 314 8,600 -1,140 Descending FlightAware ADS-B
10:36PM 39.5401 -74.9928 275° West 274 315 8,200 -1,440 Descending FlightAware ADS-B
10:36PM 39.5420 -75.0182 276° West 275 316 7,900 -1,380 Descending FlightAware ADS-B
10:36PM 39.5441 -75.0441 276° West 278 320 7,500 -1,560 Descending FlightAware ADS-B
10:37PM 39.5461 -75.0692 276° West 281 323 7,100 -1,500 Descending FlightAware ADS-B
10:37PM 39.5490 -75.1067 276° West 277 319 6,600 -1,500 Descending FlightAware ADS-B
10:37PM 39.5510 -75.1318 276° West 276 318 6,200 -1,440 Descending FlightAware ADS-B
10:37PM 39.5529 -75.1564 276° West 274 315 5,900 -1,500 Descending FlightAware ADS-B
10:38PM 39.5546 -75.1784 276° West 275 316 5,500 -1,740 Descending FlightAware ADS-B
10:38PM 39.5571 -75.2128 275° West 277 319 4,900 -1,860 Descending FlightAware ADS-B
10:38PM 39.5588 -75.2385 275° West 279 321 4,400 -1,800 Descending FlightAware ADS-B
10:39PM 39.5606 -75.2632 275° West 282 325 4,000 -1,920 Descending FlightAware ADS-B
10:39PM 39.5615 -75.2709 279° West 285 328 3,800 -2,040 Descending FlightAware ADS-B
10:39PM 39.5630 -75.2778 286° West 287 330 3,700 -1,380 Descending FlightAware ADS-B
10:39PM 39.5653 -75.2849 293° West 289 333 3,600 -1,500 Descending FlightAware ADS-B
10:39PM 39.5680 -75.2912 299° West 291 335 3,500 -1,380 Descending FlightAware ADS-B
10:39PM 39.5716 -75.2972 308° West 291 335 3,400 -1,500 Descending FlightAware ADS-B
10:39PM 39.5745 -75.3013 313° West 291 335 3,300 -2,040 Descending FlightAware ADS-B
10:39PM 39.5778 -75.3050 319° Northwest 290 334 3,200 -1,740 Descending FlightAware ADS-B
10:39PM 39.5818 -75.3085 326° Northwest 289 333 3,100 -1,380 Descending FlightAware ADS-B
10:39PM 39.5884 -75.3128 333° Northwest 285 328 3,000 -900 Descending FlightAware ADS-B
10:39PM 39.5994 -75.3183 339° North 280 322 2,900 -480 Descending FlightAware ADS-B
10:40PM 39.6199 -75.3270 342° North 276 318 2,800 -240 Descending FlightAware ADS-B
10:40PM 39.6383 -75.3348 342° North 276 318 2,800 -240 Level FlightAware ADS-B
10:40PM 39.6567 -75.3428 341° North 275 316 2,700 -960 Descending FlightAware ADS-B
10:40PM 39.6767 -75.3517 341° North 272 313 2,300 -1,380 Descending FlightAware ADS-B
10:40PM 39.6819 -75.3541 340° North 272 313 2,200 -1,200 Descending FlightAware ADS-B
10:41PM 39.6884 -75.3575 338° Northwest 273 314 2,100 -1,380 Descending FlightAware ADS-B
10:41PM 39.6923 -75.3602 332° Northwest 273 314 2,000 -1,200 Descending FlightAware ADS-B
10:41PM 39.6991 -75.3658 328° Northwest 272 313 1,900 -600 Descending FlightAware ADS-B
10:41PM 39.7138 -75.3802 323° Northwest 249 287 1,800 -240 Descending FlightAware ADS-B
10:41PM 39.7267 -75.3931 322° Northwest 225 259 1,800  Level FlightAware ADS-B
10:41PM 39.7386 -75.4052 322° Northwest 204 235 1,800  Level FlightAware ADS-B
10:42PM 39.7497 -75.4164 322° Northwest 191 220 1,800  Level FlightAware ADS-B
10:42PM 39.7601 -75.4270 322° Northwest 188 216 1,800  Level FlightAware ADS-B